createdAt,value
2017-11-29T00:02:04.522Z,99651.39
2017-11-29T00:04:35.841Z,99650.69
2017-11-29T00:07:07.536Z,99650.69
2017-11-29T00:09:38.814Z,99650.69
2017-11-29T00:12:10.902Z,99647.22
2017-11-29T00:14:42.242Z,99633.69
2017-11-29T00:17:13.755Z,99644.09
2017-11-29T00:19:45.373Z,99633.95
2017-11-29T00:22:17.093Z,99638.62
2017-11-29T00:24:49.740Z,99645.66
2017-11-29T00:27:21.451Z,99645.63
2017-11-29T00:29:52.956Z,99644.78
2017-11-29T00:32:24.356Z,99644.35
2017-11-29T00:34:55.962Z,99640.98
2017-11-29T00:37:27.327Z,99642.36
2017-11-29T00:39:58.771Z,99638.05
2017-11-29T00:42:30.441Z,99636.55
2017-11-29T00:45:02.632Z,99640.02
2017-11-29T00:47:34.419Z,99630.42
2017-11-29T00:50:08.664Z,99631.27
2017-11-29T00:52:39.940Z,99631.67
2017-11-29T00:55:11.593Z,99629.95
2017-11-29T00:57:42.987Z,99631.03
2017-11-29T01:00:14.827Z,99632.14
2017-11-29T01:02:46.290Z,99627.72
2017-11-29T01:05:17.701Z,99624.16
2017-11-29T01:07:49.378Z,99624.58
2017-11-29T01:10:20.721Z,99618.52
2017-11-29T01:12:52.083Z,99622.09
2017-11-29T01:15:25.917Z,99618.42
2017-11-29T01:17:57.260Z,99621.40
2017-11-29T01:20:28.928Z,99614.38
2017-11-29T01:23:00.231Z,99617.39
2017-11-29T01:25:31.644Z,99624.17
2017-11-29T01:28:04.407Z,99622.50
2017-11-29T01:30:35.855Z,99619.33
2017-11-29T01:33:07.515Z,99612.18
2017-11-29T01:35:38.846Z,99624.68
2017-11-29T01:38:10.625Z,99619.16
2017-11-29T01:40:42.244Z,99618.42
2017-11-29T01:43:15.006Z,99609.42
2017-11-29T01:45:46.569Z,99602.82
2017-11-29T01:48:18.378Z,99606.63
2017-11-29T01:50:49.705Z,99598.65
2017-11-29T01:53:21.027Z,99594.92
2017-11-29T01:55:52.693Z,99596.66
2017-11-29T01:58:23.992Z,99596.48
2017-11-29T02:00:55.439Z,99593.71
2017-11-29T02:03:27.076Z,99592.74
2017-11-29T02:06:03.339Z,99598.84
2017-11-29T02:08:35.057Z,99603.89
2017-11-29T02:11:06.536Z,99601.27
2017-11-29T02:13:37.874Z,99597.78
2017-11-29T02:16:09.510Z,99598.91
2017-11-29T02:18:41.094Z,99598.34
2017-11-29T02:21:14.526Z,99601.89
2017-11-29T02:23:45.937Z,99596.31
2017-11-29T02:26:17.585Z,99591.89
2017-11-29T02:28:49.279Z,99590.20
2017-11-29T02:31:21.608Z,99587.31
2017-11-29T02:33:53.324Z,99584.36
2017-11-29T02:36:24.954Z,99588.08
2017-11-29T02:38:56.278Z,99586.77
2017-11-29T02:43:34.131Z,99589.64
2017-11-29T02:46:06.528Z,99583.88
2017-11-29T02:48:38.177Z,99589.31
2017-11-29T02:51:09.556Z,99589.93
2017-11-29T02:53:41.237Z,99587.52
2017-11-29T02:56:13.025Z,99581.44
2017-11-29T02:58:44.538Z,99580.39
2017-11-29T03:01:16.245Z,99580.28
2017-11-29T03:03:47.648Z,99573.69
2017-11-29T03:06:20.013Z,99573.64
2017-11-29T03:08:51.707Z,99563.47
2017-11-29T03:11:23.814Z,99563.76
2017-11-29T03:13:55.332Z,99557.75
2017-11-29T03:16:26.925Z,99560.63
2017-11-29T03:18:58.211Z,99561.34
2017-11-29T03:21:29.518Z,99559.75
2017-11-29T03:24:01.329Z,99562.25
2017-11-29T03:26:32.689Z,99561.94
2017-11-29T03:29:04.423Z,99562.72
2017-11-29T03:31:35.993Z,99557.14
2017-11-29T03:34:08.246Z,99559.78
2017-11-29T03:36:40.919Z,99556.41
2017-11-29T03:39:13.352Z,99558.97
2017-11-29T03:41:44.637Z,99553.45
2017-11-29T03:44:17.205Z,99552.58
2017-11-29T03:46:48.484Z,99553.88
2017-11-29T03:49:20.300Z,99553.55
2017-11-29T03:51:51.629Z,99552.84
2017-11-29T03:54:22.949Z,99548.66
2017-11-29T03:56:54.219Z,99546.08
2017-11-29T03:59:25.512Z,99551.19
2017-11-29T04:01:56.841Z,99545.06
2017-11-29T04:04:28.588Z,99537.42
2017-11-29T04:06:59.946Z,99536.44
2017-11-29T04:09:31.598Z,99539.31
2017-11-29T04:12:04.618Z,99542.94
2017-11-29T04:14:35.951Z,99545.13
2017-11-29T04:17:07.750Z,99548.89
2017-11-29T04:19:39.114Z,99547.62
2017-11-29T04:22:10.414Z,99540.78
2017-11-29T04:24:42.030Z,99545.58
2017-11-29T04:27:13.404Z,99550.73
2017-11-29T04:29:45.183Z,99541.49
2017-11-29T04:32:17.501Z,99541.05
2017-11-29T04:34:48.823Z,99543.22
2017-11-29T04:37:20.486Z,99540.69
2017-11-29T04:39:51.989Z,99543.22
2017-11-29T04:42:23.301Z,99540.86
2017-11-29T04:44:54.909Z,99538.63
2017-11-29T04:47:26.207Z,99531.41
2017-11-29T04:49:57.612Z,99537.62
2017-11-29T04:52:29.412Z,99539.16
2017-11-29T04:55:00.782Z,99539.23
2017-11-29T04:57:32.204Z,99537.64
2017-11-29T05:00:04.925Z,99544.76
2017-11-29T05:02:36.304Z,99540.72
2017-11-29T05:05:09.333Z,99538.35
2017-11-29T05:07:40.790Z,99541.57
2017-11-29T05:10:12.150Z,99539.23
2017-11-29T05:12:43.507Z,99547.41
2017-11-29T05:15:14.880Z,99539.60
2017-11-29T05:17:46.534Z,99541.77
2017-11-29T05:20:18.060Z,99535.16
2017-11-29T05:22:49.850Z,99542.95
2017-11-29T05:25:21.266Z,99537.77
2017-11-29T05:27:52.939Z,99536.13
2017-11-29T05:30:24.913Z,99539.19
2017-11-29T05:32:56.490Z,99541.68
2017-11-29T05:35:27.963Z,99537.16
2017-11-29T05:37:59.590Z,99534.92
2017-11-29T05:40:31.225Z,99531.36
2017-11-29T05:43:03.303Z,99528.00
2017-11-29T05:45:36.514Z,99530.88
2017-11-29T05:48:09.437Z,99531.56
2017-11-29T05:50:41.236Z,99532.08
2017-11-29T05:53:14.840Z,99533.73
2017-11-29T05:55:46.613Z,99535.70
2017-11-29T05:58:17.997Z,99538.13
2017-11-29T06:00:49.423Z,99542.20
2017-11-29T06:03:21.169Z,99540.55
2017-11-29T06:05:52.593Z,99540.20
2017-11-29T06:08:24.214Z,99545.95
2017-11-29T06:10:55.605Z,99544.80
2017-11-29T06:13:26.979Z,99539.44
2017-11-29T06:15:58.991Z,99539.59
2017-11-29T06:18:30.456Z,99538.16
2017-11-29T06:21:02.370Z,99540.83
2017-11-29T06:23:34.166Z,99540.97
2017-11-29T06:26:06.761Z,99539.62
2017-11-29T06:28:38.220Z,99544.81
2017-11-29T06:31:10.400Z,99540.90
2017-11-29T06:33:41.813Z,99545.91
2017-11-29T06:36:13.554Z,99549.68
2017-11-29T06:38:45.177Z,99554.67
2017-11-29T06:41:16.483Z,99550.06
2017-11-29T06:43:47.930Z,99556.86
2017-11-29T06:46:19.585Z,99545.16
2017-11-29T06:48:50.995Z,99543.26
2017-11-29T06:51:22.421Z,99549.55
2017-11-29T06:53:54.150Z,99551.02
2017-11-29T06:56:25.650Z,99556.73
2017-11-29T06:58:57.005Z,99557.16
2017-11-29T07:01:28.705Z,99562.15
2017-11-29T07:04:00.127Z,99560.84
2017-11-29T07:06:32.913Z,99568.13
2017-11-29T07:09:06.059Z,99565.00
2017-11-29T07:11:37.363Z,99560.23
2017-11-29T07:14:10.298Z,99566.97
2017-11-29T07:16:41.615Z,99571.58
2017-11-29T07:19:13.991Z,99575.48
2017-11-29T07:21:45.639Z,99577.70
2017-11-29T07:24:18.317Z,99575.31
2017-11-29T07:26:49.634Z,99572.00
2017-11-29T07:29:21.158Z,99581.44
2017-11-29T07:31:52.533Z,99571.39
2017-11-29T07:34:24.118Z,99584.47
2017-11-29T07:36:55.628Z,99579.51
2017-11-29T07:39:26.960Z,99581.06
2017-11-29T07:41:59.497Z,99585.25
2017-11-29T07:44:30.844Z,99590.61
2017-11-29T07:47:03.932Z,99586.49
2017-11-29T07:49:35.282Z,99593.33
2017-11-29T07:52:06.755Z,99592.45
2017-11-29T07:54:38.389Z,99608.45
2017-11-29T07:57:09.780Z,99606.75
2017-11-29T07:59:41.355Z,99607.34
2017-11-29T08:02:13.228Z,99605.70
2017-11-29T08:04:44.569Z,99612.05
2017-11-29T08:07:17.887Z,99623.98
2017-11-29T08:09:49.315Z,99621.03
2017-11-29T08:12:23.962Z,99618.70
2017-11-29T08:14:55.292Z,99619.83
2017-11-29T08:17:28.117Z,99616.47
2017-11-29T08:19:59.845Z,99616.00
2017-11-29T08:22:32.108Z,99614.30
2017-11-29T08:25:03.900Z,99607.45
2017-11-29T08:27:38.216Z,99611.94
2017-11-29T08:30:12.053Z,99610.73
2017-11-29T08:32:50.187Z,99618.75
2017-11-29T08:35:22.021Z,99618.69
2017-11-29T08:37:54.397Z,99622.52
2017-11-29T08:40:26.280Z,99625.79
2017-11-29T08:42:58.141Z,99622.23
2017-11-29T08:45:29.681Z,99620.56
2017-11-29T08:48:01.144Z,99631.24
2017-11-29T08:50:33.545Z,99632.73
2017-11-29T08:53:06.788Z,99628.84
2017-11-29T08:55:38.422Z,99628.27
2017-11-29T08:58:14.444Z,99622.28
2017-11-29T09:00:46.123Z,99621.60
2017-11-29T09:03:18.710Z,99621.51
2017-11-29T09:05:51.966Z,99616.61
2017-11-29T09:08:23.740Z,99620.81
2017-11-29T09:10:55.732Z,99619.22
2017-11-29T09:13:29.225Z,99620.08
2017-11-29T09:16:00.690Z,99629.12
2017-11-29T09:18:32.463Z,99620.35
2017-11-29T09:21:04.215Z,99619.33
2017-11-29T09:23:35.944Z,99618.81
2017-11-29T09:26:07.797Z,99622.52
2017-11-29T09:28:39.193Z,99628.46
2017-11-29T09:31:11.341Z,99634.94
2017-11-29T09:33:43.038Z,99630.36
2017-11-29T09:36:14.492Z,99631.28
2017-11-29T09:38:46.163Z,99630.17
2017-11-29T09:41:17.845Z,99630.12
2017-11-29T09:43:49.302Z,99626.48
2017-11-29T09:46:20.762Z,99624.66
2017-11-29T09:48:52.473Z,99622.70
2017-11-29T09:51:25.298Z,99622.13
2017-11-29T09:53:57.178Z,99619.66
2017-11-29T09:56:28.570Z,99613.02
2017-11-29T09:59:00.050Z,99607.95
2017-11-29T10:01:31.753Z,99615.23
2017-11-29T10:04:04.726Z,99610.39
2017-11-29T10:06:36.478Z,99607.70
2017-11-29T10:09:08.742Z,99614.81
2017-11-29T10:11:40.703Z,99608.17
2017-11-29T10:14:12.438Z,99616.88
2017-11-29T10:16:43.923Z,99614.17
2017-11-29T10:19:16.132Z,99609.19
2017-11-29T10:21:47.929Z,99607.39
2017-11-29T10:24:19.863Z,99603.56
2017-11-29T10:26:51.259Z,99596.70
2017-11-29T10:29:23.081Z,99599.44
2017-11-29T10:31:54.514Z,99586.52
2017-11-29T10:34:30.268Z,99582.39
2017-11-29T10:37:03.721Z,99580.47
2017-11-29T10:39:35.432Z,99577.84
2017-11-29T10:42:07.328Z,99578.61
2017-11-29T10:44:38.836Z,99584.10
2017-11-29T10:47:11.104Z,99578.29
2017-11-29T10:49:42.797Z,99577.38
2017-11-29T10:52:14.687Z,99579.42
2017-11-29T10:54:46.203Z,99587.50
2017-11-29T10:57:20.416Z,99583.61
2017-11-29T10:59:51.832Z,99582.59
2017-11-29T11:02:23.606Z,99585.47
2017-11-29T11:04:55.095Z,99587.04
2017-11-29T11:07:27.029Z,99587.68
2017-11-29T11:09:58.777Z,99583.47
2017-11-29T11:12:30.159Z,99589.42
2017-11-29T11:15:01.720Z,99588.61
2017-11-29T11:17:33.446Z,99580.47
2017-11-29T11:20:05.967Z,99586.18
2017-11-29T11:22:37.424Z,99590.02
2017-11-29T11:25:10.937Z,99588.61
2017-11-29T11:27:42.445Z,99584.58
2017-11-29T11:30:15.177Z,99585.42
2017-11-29T11:32:46.942Z,99585.91
2017-11-29T11:35:18.331Z,99583.20
2017-11-29T11:37:49.854Z,99583.63
2017-11-29T11:40:21.614Z,99582.91
2017-11-29T11:42:53.064Z,99582.87
2017-11-29T11:48:19.609Z,99577.31
2017-11-29T11:50:53.369Z,99576.73
2017-11-29T11:53:25.198Z,99576.35
2017-11-29T11:55:56.644Z,99569.64
2017-11-29T11:58:29.557Z,99560.13
2017-11-29T12:01:02.277Z,99552.39
2017-11-29T12:03:33.740Z,99544.06
2017-11-29T12:06:08.825Z,99542.22
2017-11-29T12:08:40.368Z,99541.84
2017-11-29T12:11:14.108Z,99545.00
2017-11-29T12:13:45.591Z,99556.84
2017-11-29T12:16:19.234Z,99543.30
2017-11-29T12:18:51.523Z,99550.11
2017-11-29T12:21:24.080Z,99543.94
2017-11-29T12:23:55.599Z,99551.39
2017-11-29T12:26:27.341Z,99546.41
2017-11-29T12:28:59.817Z,99545.79
2017-11-29T12:31:31.525Z,99545.05
2017-11-29T12:34:04.129Z,99542.66
2017-11-29T12:36:36.084Z,99550.66
2017-11-29T12:39:08.103Z,99548.69
2017-11-29T12:41:39.740Z,99551.45
2017-11-29T12:44:11.504Z,99546.80
2017-11-29T12:46:43.182Z,99550.95
2017-11-29T12:51:21.434Z,99548.37
2017-11-29T12:53:53.264Z,99542.63
2017-11-29T12:56:26.782Z,99545.03
2017-11-29T12:58:58.163Z,99544.51
2017-11-29T13:01:32.084Z,99543.20
2017-11-29T13:04:04.537Z,99544.83
2017-11-29T13:06:36.550Z,99544.31
2017-11-29T13:09:08.900Z,99543.78
2017-11-29T13:11:40.463Z,99550.06
2017-11-29T13:14:13.723Z,99540.14
2017-11-29T13:16:45.107Z,99539.47
2017-11-29T13:19:17.411Z,99541.48
2017-11-29T13:21:48.791Z,99543.25
2017-11-29T13:24:20.337Z,99544.78
2017-11-29T13:26:52.123Z,99551.20
2017-11-29T13:29:23.677Z,99550.80
2017-11-29T13:31:55.263Z,99549.83
2017-11-29T13:34:27.627Z,99549.16
2017-11-29T13:36:59.100Z,99550.82
2017-11-29T13:39:31.233Z,99554.84
2017-11-29T13:42:04.299Z,99564.98
2017-11-29T13:44:35.711Z,99563.91
2017-11-29T13:47:07.823Z,99561.52
2017-11-29T13:49:39.301Z,99563.78
2017-11-29T13:52:15.260Z,99573.62
2017-11-29T13:54:46.749Z,99576.45
2017-11-29T13:57:18.254Z,99576.91
2017-11-29T13:59:49.931Z,99578.79
2017-11-29T14:02:21.521Z,99580.49
2017-11-29T14:04:53.164Z,99578.55
2017-11-29T14:07:26.369Z,99580.41
2017-11-29T14:09:57.760Z,99578.15
2017-11-29T14:12:29.474Z,99579.88
2017-11-29T14:15:02.015Z,99581.25
2017-11-29T14:17:33.393Z,99579.34
2017-11-29T14:20:09.674Z,99586.08
2017-11-29T14:22:41.328Z,99584.81
2017-11-29T14:25:12.684Z,99585.21
2017-11-29T14:27:44.120Z,99589.75
2017-11-29T14:30:15.967Z,99593.03
2017-11-29T14:32:47.328Z,99593.06
2017-11-29T14:35:18.761Z,99600.38
2017-11-29T14:37:50.443Z,99601.14
2017-11-29T14:40:21.849Z,99600.78
2017-11-29T14:42:53.857Z,99599.98
2017-11-29T14:45:25.283Z,99604.98
2017-11-29T14:47:56.669Z,99609.05
2017-11-29T14:50:28.603Z,99602.59
2017-11-29T14:53:00.072Z,99606.48
2017-11-29T14:55:32.784Z,99600.52
2017-11-29T14:58:06.508Z,99604.73
2017-11-29T15:00:38.834Z,99604.89
2017-11-29T15:03:10.583Z,99609.03
2017-11-29T15:05:41.901Z,99598.91
2017-11-29T15:08:14.250Z,99609.58
2017-11-29T15:10:45.865Z,99604.47
2017-11-29T15:13:18.351Z,99613.27
2017-11-29T15:15:50.072Z,99608.47
2017-11-29T15:18:22.459Z,99606.44
2017-11-29T15:20:53.846Z,99613.20
2017-11-29T15:23:27.328Z,99612.95
2017-11-29T15:25:58.672Z,99615.59
2017-11-29T15:28:31.157Z,99616.77
2017-11-29T15:31:02.660Z,99613.91
2017-11-29T15:33:35.383Z,99613.73
2017-11-29T15:36:07.208Z,99608.91
2017-11-29T15:38:38.560Z,99610.47
2017-11-29T15:41:11.801Z,99611.76
2017-11-29T15:43:43.472Z,99614.05
2017-11-29T15:46:16.722Z,99617.75
2017-11-29T15:48:48.128Z,99618.34
2017-11-29T15:51:20.726Z,99614.69
2017-11-29T15:53:52.393Z,99620.45
2017-11-29T15:56:24.777Z,99627.11
2017-11-29T15:58:56.071Z,99620.45
2017-11-29T16:01:27.825Z,99623.48
2017-11-29T16:03:59.166Z,99620.89
2017-11-29T16:06:30.486Z,99623.54
2017-11-29T16:09:02.008Z,99628.69
2017-11-29T16:11:35.289Z,99630.75
2017-11-29T16:14:07.110Z,99629.45
2017-11-29T16:16:38.541Z,99629.20
2017-11-29T16:19:11.786Z,99623.31
2017-11-29T16:21:43.445Z,99625.03
2017-11-29T16:24:17.050Z,99626.78
2017-11-29T16:26:48.551Z,99627.45
2017-11-29T16:29:19.971Z,99629.98
2017-11-29T16:31:51.722Z,99630.36
2017-11-29T16:34:23.126Z,99631.52
2017-11-29T16:36:54.807Z,99629.38
2017-11-29T16:39:26.158Z,99630.25
2017-11-29T16:41:57.472Z,99630.69
2017-11-29T16:44:29.376Z,99638.03
2017-11-29T16:47:01.593Z,99633.53
2017-11-29T16:49:33.093Z,99628.25
2017-11-29T16:52:06.899Z,99629.20
2017-11-29T16:54:38.338Z,99626.13
2017-11-29T16:57:10.150Z,99631.88
2017-11-29T16:59:41.484Z,99628.21
2017-11-29T17:02:12.815Z,99629.45
2017-11-29T17:04:44.128Z,99630.29
2017-11-29T17:07:15.500Z,99628.74
2017-11-29T17:09:47.127Z,99629.84
2017-11-29T17:12:23.141Z,99632.70
2017-11-29T17:14:59.535Z,99632.24
2017-11-29T17:17:31.044Z,99637.72
2017-11-29T17:20:05.436Z,99635.20
2017-11-29T17:22:37.092Z,99637.37
2017-11-29T17:25:08.613Z,99637.23
2017-11-29T17:27:40.221Z,99630.05
2017-11-29T17:30:13.712Z,99633.62
2017-11-29T17:32:45.151Z,99637.08
2017-11-29T17:35:16.488Z,99631.88
2017-11-29T17:37:47.903Z,99636.65
2017-11-29T17:40:19.993Z,99631.50
2017-11-29T17:42:51.468Z,99634.70
2017-11-29T17:45:23.508Z,99640.80
2017-11-29T17:47:54.987Z,99642.16
2017-11-29T17:50:26.689Z,99643.73
2017-11-29T17:52:58.573Z,99642.36
2017-11-29T17:55:31.077Z,99644.55
2017-11-29T17:58:05.362Z,99648.55
2017-11-29T18:00:36.780Z,99649.83
2017-11-29T18:03:08.470Z,99642.85
2017-11-29T18:05:40.274Z,99650.33
2017-11-29T18:08:11.606Z,99648.64
2017-11-29T18:10:43.298Z,99645.95
2017-11-29T18:13:15.024Z,99645.17
2017-11-29T18:15:50.528Z,99647.84
2017-11-29T18:18:23.398Z,99646.62
2017-11-29T18:20:54.846Z,99645.08
2017-11-29T18:23:26.550Z,99645.52
2017-11-29T18:25:57.939Z,99642.27
2017-11-29T18:28:29.980Z,99645.52
2017-11-29T18:31:02.062Z,99647.05
2017-11-29T18:33:33.508Z,99643.15
2017-11-29T18:36:05.588Z,99650.93
2017-11-29T18:38:36.964Z,99645.13
2017-11-29T18:41:08.634Z,99648.02
2017-11-29T18:43:40.482Z,99650.86
2017-11-29T18:46:13.007Z,99650.69
2017-11-29T18:48:44.744Z,99652.79
2017-11-29T18:51:16.600Z,99652.77
2017-11-29T18:53:48.209Z,99655.11
2017-11-29T18:56:19.926Z,99653.44
2017-11-29T18:58:51.308Z,99657.42
2017-11-29T19:01:22.851Z,99650.87
2017-11-29T19:03:54.514Z,99658.93
2017-11-29T19:06:26.569Z,99653.11
2017-11-29T19:08:58.110Z,99655.39
2017-11-29T19:11:29.816Z,99659.61
2017-11-29T19:14:03.342Z,99655.81
2017-11-29T19:16:35.009Z,99658.56
2017-11-29T19:19:06.884Z,99660.41
2017-11-29T19:21:38.305Z,99663.76
2017-11-29T19:24:09.942Z,99665.39
2017-11-29T19:26:41.404Z,99670.68
2017-11-29T19:29:13.073Z,99667.59
2017-11-29T19:31:44.778Z,99666.98
2017-11-29T19:34:16.129Z,99670.55
2017-11-29T19:36:47.825Z,99674.25
2017-11-29T19:39:20.176Z,99679.42
2017-11-29T19:41:51.883Z,99679.70
2017-11-29T19:44:24.479Z,99681.26
2017-11-29T19:46:56.509Z,99683.52
2017-11-29T19:49:27.897Z,99683.14
2017-11-29T19:51:59.265Z,99688.49
2017-11-29T19:54:32.386Z,99683.07
2017-11-29T19:57:04.682Z,99689.28
2017-11-29T19:59:36.406Z,99685.20
2017-11-29T20:02:08.069Z,99686.23
2017-11-29T20:04:40.341Z,99685.23
2017-11-29T20:07:14.039Z,99690.65
2017-11-29T20:09:45.606Z,99672.56
2017-11-29T20:12:20.420Z,99680.30
2017-11-29T20:14:52.205Z,99681.95
2017-11-29T20:17:24.230Z,99679.70
2017-11-29T20:19:55.947Z,99674.65
2017-11-29T20:22:27.653Z,99677.80
2017-11-29T20:24:59.117Z,99670.89
2017-11-29T20:27:30.789Z,99671.25
2017-11-29T20:30:03.767Z,99670.75
2017-11-29T20:32:35.388Z,99672.25
2017-11-29T20:35:07.327Z,99678.25
2017-11-29T20:37:38.964Z,99678.32
2017-11-29T20:40:13.515Z,99672.10
2017-11-29T20:42:45.294Z,99675.52
2017-11-29T20:45:20.093Z,99678.00
2017-11-29T20:47:52.007Z,99674.03
2017-11-29T20:50:24.001Z,99671.76
2017-11-29T20:52:56.945Z,99673.53
2017-11-29T20:55:35.138Z,99669.33
2017-11-29T20:58:07.888Z,99677.11
2017-11-29T21:00:39.800Z,99671.23
2017-11-29T21:03:11.173Z,99674.38
2017-11-29T21:05:42.610Z,99674.95
2017-11-29T21:08:17.193Z,99672.61
2017-11-29T21:10:48.814Z,99677.79
2017-11-29T21:13:26.512Z,99673.05
2017-11-29T21:15:58.994Z,99674.59
2017-11-29T21:18:31.232Z,99668.33
2017-11-29T21:21:04.205Z,99667.52
2017-11-29T21:23:36.650Z,99664.16
2017-11-29T21:26:09.105Z,99668.65
2017-11-29T21:28:40.524Z,99667.14
2017-11-29T21:31:12.192Z,99664.41
2017-11-29T21:33:43.665Z,99666.12
2017-11-29T21:36:15.946Z,99665.50
2017-11-29T21:38:47.717Z,99663.63
2017-11-29T21:41:19.130Z,99663.26
2017-11-29T21:43:50.656Z,99664.73
2017-11-29T21:46:23.104Z,99669.14
2017-11-29T21:48:55.599Z,99657.39
2017-11-29T21:51:28.181Z,99649.52
2017-11-29T21:54:00.703Z,99648.73
2017-11-29T21:56:35.527Z,99645.41
2017-11-29T21:59:09.498Z,99645.91
2017-11-29T22:01:42.599Z,99644.17
2017-11-29T22:04:14.352Z,99646.39
2017-11-29T22:06:46.608Z,99639.22
2017-11-29T22:09:18.194Z,99639.83
2017-11-29T22:11:50.372Z,99647.01
2017-11-29T22:14:22.347Z,99640.13
2017-11-29T22:16:53.766Z,99634.93
2017-11-29T22:19:29.213Z,99637.30
2017-11-29T22:22:03.998Z,99645.41
2017-11-29T22:24:36.077Z,99640.84
2017-11-29T22:27:08.102Z,99637.34
2017-11-29T22:29:39.759Z,99640.92
2017-11-29T22:32:11.130Z,99643.87
2017-11-29T22:34:42.514Z,99647.47
2017-11-29T22:37:13.955Z,99643.58
2017-11-29T22:39:45.549Z,99643.20
2017-11-29T22:42:17.196Z,99648.64
2017-11-29T22:44:48.522Z,99648.11
2017-11-29T22:47:20.298Z,99640.15
2017-11-29T22:49:51.927Z,99642.98
2017-11-29T22:52:23.239Z,99643.46
2017-11-29T22:55:03.411Z,99646.48
2017-11-29T22:57:34.862Z,99635.53
2017-11-29T23:00:07.963Z,99632.56
2017-11-29T23:02:39.283Z,99634.63
2017-11-29T23:05:10.750Z,99627.81
2017-11-29T23:07:42.042Z,99627.95
2017-11-29T23:10:13.369Z,99627.28
2017-11-29T23:12:44.979Z,99626.63
2017-11-29T23:15:17.653Z,99633.81
2017-11-29T23:17:48.992Z,99623.66
2017-11-29T23:20:21.717Z,99626.55
2017-11-29T23:22:53.212Z,99626.13
2017-11-29T23:25:24.970Z,99619.37
2017-11-29T23:27:56.301Z,99616.22
2017-11-29T23:30:27.685Z,99613.16
2017-11-29T23:32:59.539Z,99612.57
2017-11-29T23:35:31.036Z,99607.72
2017-11-29T23:38:03.503Z,99608.08
2017-11-29T23:40:35.106Z,99602.22
2017-11-29T23:43:07.635Z,99599.69
2017-11-29T23:45:39.051Z,99599.27
2017-11-29T23:48:10.888Z,99594.38
2017-11-29T23:50:43.468Z,99600.88
2017-11-29T23:53:14.855Z,99591.00
2017-11-29T23:55:46.527Z,99599.37
2017-11-29T23:58:17.959Z,99590.16
